Patuxent River Naval Air Station/Trapnell Field Aiport
KNHK : rendu visible

Aérodrome :











RETROUVEZ-NOUS SUR...

 
LOGIN :

S'inscrire | Disclaimer

   EN    FR    IT 

 









Légende :    VFR   VFR Marginal   IFR   IFR Intensif   IFR Très Intensif
Visi : 
Plafond : 
>= 8 km
>= 3000ft
5 à 8 km
1000 à 3000 ft
1500m à 5 km
500 à 1000 ft
800 à 1500m
200 à 500 ft
< 800m
< 200 ft
Symboles :   Orages  Brouillard  Fortes neiges  Fortes précipitations  Vent > 20 kt






- Altitude de l'aérodrome : 39 ft


KNHK - Patuxent River Naval Air Station/Trapnell Field Aiport

DERNIER METAR :
  • 250952Z COR 27003KT 10SM FEW250 14/14 A3029 RMK AO2 SLP258 T01440139

METARs EXPIRÉS :
  • 250852Z AUTO 23003KT 10SM CLR 14/13 A3029 RMK AO2 SLP255 T01440133 55000 $
  • 250752Z AUTO 00000KT 10SM CLR 14/14 A3027 RMK AO2 SLP248 T01440139 $
  • 250652Z AUTO 00000KT 10SM CLR 15/14 A3028 RMK AO2 SLP253 T01500139 $

TAF TAF KNHK
Valide du 25 à 07h jusqu'au 26 à 07h UTC


2507/2607 09008KT 9999 FEW050 FEW250 QNH3025INS
BECMG 2511/2513 VRB03KT 9999 FEW035 BKN050 QNH3022INS
BECMG 2516/2518 15010KT 9999 SCT012 BKN030 QNH3016INS
BECMG 2522/2600 18008KT 6000 BR BKN008 OVC015 QNH3010INS AUTOMATED SENSOR METWATCH 2507 TIL 2508 T16/2510Z T24/2523Z FN00237
FIR KZDC / Amérique du Nord



MET'MAP, la Météo Aéronautique d'un coup d'oeil ! - Copyright ORBIFLY Décembre 2007 - Disclaimer

ORBIFLY MET'MAP TEAM :

Programmation & Développement : Alexandra Zaïnal
Sur une idée originale de : Baudouin d'Aumeries
Assistance à la programmation : Marc-Olivier Méhu
Soutien technique & logistique : Manuel Goepfert

Contact : metmap@orbifly.com




SOURCES & CREDITS :

   NOAA       Earth
Advisory